Time;durP1;ratioP1;P1;durP2;ratioP2;P2;SDS_P1;SDS_P2;PMS_P1;PMS_P2;Temp;Humidity;BMP_temperature;BMP_pressure;BME280_temperature;BME280_humidity;BME280_pressure;Samples;Min_cycle;Max_cycle;Signal;HPM_P1;HPM_P2
2020/12/05 00:00:26;;;;;;;0.00;0.00;;;17.30;70.80;;;;;;4232452;28;20104;-42
2020/12/05 00:02:50;;;;;;;0.00;0.00;;;17.30;70.40;;;;;;4232110;28;20173;-41
2020/12/05 00:05:11;;;;;;;0.00;0.00;;;17.30;70.40;;;;;;4232317;28;20077;-41
2020/12/05 00:07:31;;;;;;;0.05;0.05;;;17.20;70.70;;;;;;4232328;28;20440;-40
2020/12/05 00:09:54;;;;;;;0.00;0.00;;;17.10;71.10;;;;;;4232183;28;20876;-40
2020/12/05 00:12:15;;;;;;;0.35;0.35;;;17.00;71.50;;;;;;4231916;28;20108;-40
2020/12/05 00:14:48;;;;;;;0.10;0.10;;;16.90;72.10;;;;;;4232284;28;20052;-40
2020/12/05 00:17:11;;;;;;;0.00;0.00;;;16.80;72.70;;;;;;4231973;28;20052;-40
2020/12/05 00:19:32;;;;;;;0.20;0.20;;;16.80;72.80;;;;;;4231551;28;20136;-40
2020/12/05 00:22:00;;;;;;;0.20;0.20;;;16.80;72.50;;;;;;4231220;28;20051;-40
2020/12/05 00:24:21;;;;;;;0.17;0.15;;;16.90;72.20;;;;;;4231389;28;20044;-40
2020/12/05 00:26:43;;;;;;;0.25;0.25;;;17.00;71.90;;;;;;4231175;28;20051;-41
2020/12/05 00:29:10;;;;;;;0.00;0.00;;;17.00;71.70;;;;;;4231839;28;20407;-41
2020/12/05 00:31:33;;;;;;;0.00;0.00;;;16.90;71.70;;;;;;4231731;28;20125;-40
2020/12/05 00:33:54;;;;;;;0.00;0.00;;;16.90;72.10;;;;;;4231657;28;20055;-41
2020/12/05 00:36:16;;;;;;;0.08;0.08;;;16.90;72.60;;;;;;4231844;28;20526;-41
2020/12/05 00:38:37;;;;;;;7.88;0.70;;;16.80;72.90;;;;;;4231751;28;20642;-40
2020/12/05 00:40:59;;;;;;;0.00;0.00;;;16.80;72.90;;;;;;4230955;28;20048;-40
2020/12/05 00:43:21;;;;;;;0.20;0.20;;;17.00;72.30;;;;;;4231453;28;20059;-40
2020/12/05 00:45:42;;;;;;;0.38;0.38;;;17.10;71.70;;;;;;4231071;28;20558;-40
2020/12/05 00:48:02;;;;;;;0.10;0.10;;;17.20;71.30;;;;;;4230868;28;20051;-40
2020/12/05 00:50:26;;;;;;;0.25;0.25;;;17.20;71.10;;;;;;4231126;28;20075;-40
2020/12/05 00:52:48;;;;;;;0.00;0.00;;;17.20;71.30;;;;;;4215900;28;20080;-40
2020/12/05 00:55:10;;;;;;;0.80;0.80;;;17.10;71.50;;;;;;4231457;28;20519;-42
2020/12/05 00:57:32;;;;;;;0.00;0.00;;;17.10;71.70;;;;;;4230761;28;20056;-40
2020/12/05 00:59:54;;;;;;;0.30;0.30;;;17.00;71.90;;;;;;4230956;28;20601;-40
2020/12/05 01:02:15;;;;;;;0.30;0.30;;;16.90;72.30;;;;;;4230869;28;20051;-41
2020/12/05 01:04:35;;;;;;;1.90;1.23;;;16.80;72.80;;;;;;4230723;28;20047;-40
2020/12/05 01:06:56;;;;;;;0.60;0.60;;;16.80;72.90;;;;;;4230778;28;20502;-40
2020/12/05 01:09:17;;;;;;;0.00;0.00;;;16.80;72.80;;;;;;4230727;28;20056;-42
2020/12/05 01:11:39;;;;;;;0.00;0.00;;;16.90;72.50;;;;;;4230352;28;20421;-40
2020/12/05 01:13:59;;;;;;;0.20;0.20;;;16.90;72.50;;;;;;4230467;28;20077;-40
2020/12/05 01:16:22;;;;;;;0.10;0.10;;;16.90;73.30;;;;;;4230858;28;20301;-40
2020/12/05 01:18:43;;;;;;;0.08;0.08;;;16.80;72.60;;;;;;4231124;28;20052;-40
2020/12/05 01:21:08;;;;;;;0.00;0.00;;;16.80;73.00;;;;;;4231127;28;20055;-40
2020/12/05 01:23:30;;;;;;;1.95;1.25;;;16.60;73.40;;;;;;4230763;28;20051;-40
2020/12/05 01:25:51;;;;;;;0.10;0.10;;;16.60;74.00;;;;;;4230001;28;20444;-40
2020/12/05 01:28:12;;;;;;;0.10;0.10;;;16.60;73.90;;;;;;4230485;28;20490;-40
2020/12/05 01:30:33;;;;;;;0.00;0.00;;;16.70;74.50;;;;;;4230386;28;20055;-40
2020/12/05 01:32:55;;;;;;;0.00;0.00;;;16.80;73.20;;;;;;4213457;28;20105;-40
2020/12/05 01:35:16;;;;;;;0.35;0.35;;;16.80;72.80;;;;;;4213292;28;20410;-40
2020/12/05 01:37:37;;;;;;;0.60;0.60;;;17.00;72.20;;;;;;4213428;28;20156;-40
2020/12/05 01:40:00;;;;;;;0.00;0.00;;;17.10;71.50;;;;;;4213392;28;20052;-40
2020/12/05 01:42:21;;;;;;;0.85;0.85;;;17.20;71.20;;;;;;4226593;28;20563;-40
2020/12/05 01:44:42;;;;;;;0.00;0.00;;;17.30;70.90;;;;;;4230183;28;20405;-40
2020/12/05 01:47:03;;;;;;;0.10;0.10;;;17.20;70.70;;;;;;4230102;28;20138;-40
2020/12/05 01:49:25;;;;;;;0.75;0.75;;;17.20;70.90;;;;;;4230533;28;20062;-40
2020/12/05 01:51:47;;;;;;;0.20;0.20;;;17.10;71.10;;;;;;4230022;28;20535;-40
2020/12/05 01:54:09;;;;;;;0.00;0.00;;;17.10;71.50;;;;;;4230251;28;20052;-41
2020/12/05 01:56:30;;;;;;;0.10;0.10;;;16.90;71.90;;;;;;4229639;28;20452;-41
2020/12/05 01:58:51;;;;;;;5.60;0.85;;;16.90;72.40;;;;;;4230131;28;20055;-41
2020/12/05 02:01:14;;;;;;;1.45;1.45;;;16.80;72.70;;;;;;4229922;28;20473;-40
2020/12/05 02:03:35;;;;;;;2.50;1.48;;;16.80;72.60;;;;;;4229847;28;20051;-40
2020/12/05 02:06:04;;;;;;;0.00;0.00;;;16.90;72.30;;;;;;4229880;28;20130;-40
2020/12/05 02:08:29;;;;;;;0.00;0.00;;;16.90;72.20;;;;;;4214822;28;20174;-40
2020/12/05 02:10:51;;;;;;;0.00;0.00;;;16.90;72.20;;;;;;4229460;28;20497;-40
2020/12/05 02:13:20;;;;;;;0.22;0.22;;;16.90;72.10;;;;;;4229529;28;20059;-41
2020/12/05 02:15:46;;;;;;;0.05;0.05;;;17.00;71.90;;;;;;4229310;28;20059;-41
2020/12/05 02:18:08;;;;;;;0.13;0.13;;;16.90;71.80;;;;;;4229834;28;20150;-40
2020/12/05 02:20:33;;;;;;;0.00;0.00;;;16.90;72.10;;;;;;4229737;28;20084;-40
2020/12/05 02:22:57;;;;;;;0.10;0.10;;;16.90;72.20;;;;;;4214082;28;20094;-41
2020/12/05 02:25:18;;;;;;;0.03;0.03;;;16.80;72.50;;;;;;4229356;28;20048;-41
2020/12/05 02:27:42;;;;;;;0.10;0.10;;;16.80;72.60;;;;;;4229720;28;20806;-40
2020/12/05 02:30:04;;;;;;;0.00;0.00;;;16.90;72.20;;;;;;4229426;28;20116;-41
2020/12/05 02:32:28;;;;;;;0.00;0.00;;;17.10;71.60;;;;;;4228947;28;20074;-41
2020/12/05 02:34:52;;;;;;;0.10;0.10;;;17.10;71.20;;;;;;4229254;28;20066;-41
2020/12/05 02:37:15;;;;;;;2.38;0.95;;;17.10;71.10;;;;;;4229802;28;20535;-41
2020/12/05 02:39:39;;;;;;;0.00;0.00;;;17.10;71.40;;;;;;4214212;28;20052;-41
2020/12/05 02:42:01;;;;;;;0.43;0.43;;;17.00;71.60;;;;;;4229170;28;20056;-41
2020/12/05 02:44:27;;;;;;;0.10;0.10;;;17.00;71.70;;;;;;4229281;28;20059;-43
2020/12/05 02:46:52;;;;;;;0.00;0.00;;;16.90;73.00;;;;;;4229480;28;20584;-41
2020/12/05 02:49:16;;;;;;;0.00;0.00;;;16.80;72.40;;;;;;4213823;28;20076;-41
2020/12/05 02:51:40;;;;;;;0.00;0.00;;;16.70;72.80;;;;;;4229134;28;20128;-42
2020/12/05 02:54:01;;;;;;;0.03;0.03;;;16.60;73.20;;;;;;4229520;28;20071;-41
2020/12/05 02:56:22;;;;;;;0.47;0.47;;;16.70;73.20;;;;;;4228779;28;20417;-41
2020/12/05 02:58:45;;;;;;;;;;;16.80;72.80;;;;;;4229950;28;20058;-41
2020/12/05 03:01:07;;;;;;;0.22;0.22;;;16.80;72.50;;;;;;4228825;28;19930;-42
2020/12/05 03:03:27;;;;;;;;;;;16.90;72.20;;;;;;4229529;28;20130;-46
2020/12/05 03:05:48;;;;;;;0.00;0.00;;;17.00;71.90;;;;;;4229307;28;19923;-41
2020/12/05 03:08:10;;;;;;;0.00;0.00;;;17.00;71.60;;;;;;4229195;28;20739;-40
2020/12/05 03:10:33;;;;;;;0.05;0.05;;;17.00;71.70;;;;;;4229414;28;20052;-40
2020/12/05 03:12:54;;;;;;;0.20;0.20;;;16.90;71.80;;;;;;4229194;28;20088;-40
2020/12/05 03:15:15;;;;;;;0.35;0.35;;;16.90;72.10;;;;;;4229311;28;20048;-40
2020/12/05 03:17:36;;;;;;;0.00;0.00;;;16.80;72.20;;;;;;4229265;28;20051;-40
2020/12/05 03:20:06;;;;;;;0.20;0.20;;;16.90;71.90;;;;;;4229278;28;20422;-40
2020/12/05 03:22:28;;;;;;;0.38;0.38;;;16.90;71.60;;;;;;4229236;28;20497;-40
2020/12/05 03:24:50;;;;;;;0.30;0.30;;;16.90;71.60;;;;;;4228905;28;20767;-40
2020/12/05 03:27:11;;;;;;;0.00;0.00;;;16.90;71.80;;;;;;4229325;28;20044;-40
2020/12/05 03:29:33;;;;;;;0.45;0.45;;;16.80;72.10;;;;;;4232268;28;20425;-40
2020/12/05 03:31:58;;;;;;;0.10;0.10;;;16.80;72.20;;;;;;4232535;28;20058;-40
2020/12/05 03:34:19;;;;;;;0.05;0.05;;;16.80;72.30;;;;;;4232355;28;20134;-40
2020/12/05 03:36:40;;;;;;;0.20;0.20;;;16.70;72.50;;;;;;4224569;28;20113;-40
2020/12/05 03:39:01;;;;;;;0.25;0.25;;;16.70;72.70;;;;;;4232688;28;20502;-40
2020/12/05 03:41:23;;;;;;;0.45;0.45;;;16.60;72.90;;;;;;4232660;28;20048;-40
2020/12/05 03:43:44;;;;;;;0.00;0.00;;;16.50;73.00;;;;;;4232509;28;20083;-40
2020/12/05 03:46:04;;;;;;;0.10;0.10;;;16.60;72.90;;;;;;4232018;28;20139;-39
2020/12/05 03:48:27;;;;;;;0.40;0.40;;;16.60;72.70;;;;;;4232463;28;20289;-40
2020/12/05 03:50:48;;;;;;;0.15;0.15;;;16.70;72.20;;;;;;4232181;28;20060;-40
2020/12/05 03:53:08;;;;;;;1.10;1.10;;;16.80;71.60;;;;;;4232244;28;20561;-40
2020/12/05 03:55:31;;;;;;;0.00;0.00;;;16.90;71.40;;;;;;4232250;28;20048;-40
2020/12/05 03:57:51;;;;;;;0.35;0.35;;;16.90;71.20;;;;;;4232192;28;20043;-40
2020/12/05 04:00:12;;;;;;;0.00;0.00;;;16.90;71.30;;;;;;4232239;28;20058;-40
2020/12/05 04:02:33;;;;;;;0.98;0.98;;;16.80;71.50;;;;;;4200077;28;20291;-39
2020/12/05 04:04:55;;;;;;;0.40;0.40;;;16.70;71.60;;;;;;4221155;28;20051;-41
2020/12/05 04:07:16;;;;;;;0.00;0.00;;;16.70;71.90;;;;;;4231685;28;20052;-40
2020/12/05 04:09:37;;;;;;;1.95;1.77;;;16.80;72.00;;;;;;4231969;28;20540;-39
2020/12/05 04:11:58;;;;;;;0.10;0.10;;;16.90;71.50;;;;;;4232060;28;20051;-40
2020/12/05 04:14:19;;;;;;;0.00;0.00;;;17.00;70.90;;;;;;4231927;28;20101;-40
2020/12/05 04:16:43;;;;;;;2.80;0.55;;;17.10;70.50;;;;;;4231717;28;20569;-40
2020/12/05 04:19:06;;;;;;;0.38;0.38;;;17.10;70.40;;;;;;4231864;28;20052;-40
2020/12/05 04:21:28;;;;;;;0.98;0.82;;;17.10;70.50;;;;;;4231615;28;20052;-40
2020/12/05 04:23:49;;;;;;;0.55;0.55;;;17.10;70.80;;;;;;4231640;28;20051;-40
2020/12/05 04:26:10;;;;;;;0.03;0.03;;;17.00;71.00;;;;;;4231330;28;20497;-41
2020/12/05 04:28:30;;;;;;;0.00;0.00;;;16.80;71.50;;;;;;4231817;28;20775;-40
2020/12/05 04:30:51;;;;;;;0.10;0.10;;;16.70;72.90;;;;;;4231419;28;20062;-40
2020/12/05 04:33:12;;;;;;;0.00;0.00;;;16.70;72.70;;;;;;4231888;28;20140;-40
2020/12/05 04:35:36;;;;;;;0.75;0.75;;;16.60;72.90;;;;;;4231514;28;20059;-40
2020/12/05 04:37:58;;;;;;;;;;;16.60;72.80;;;;;;4232023;28;20563;-40
2020/12/05 04:40:22;;;;;;;0.00;0.00;;;16.60;72.90;;;;;;4231294;28;19988;-41
2020/12/05 04:42:44;;;;;;;0.00;0.00;;;16.60;73.00;;;;;;4231535;28;20116;-40
2020/12/05 04:45:05;;;;;;;1.10;1.10;;;16.60;73.10;;;;;;4231474;28;20082;-40
2020/12/05 04:47:27;;;;;;;1.08;1.08;;;16.60;72.80;;;;;;4214584;28;20158;-40
2020/12/05 04:49:50;;;;;;;0.00;0.00;;;16.60;72.80;;;;;;4214496;28;20414;-40
2020/12/05 04:52:23;;;;;;;0.00;0.00;;;16.70;72.80;;;;;;4214445;28;20076;-40
2020/12/05 04:54:50;;;;;;;0.25;0.25;;;16.60;72.90;;;;;;4216782;28;20513;-40
2020/12/05 04:57:17;;;;;;;0.25;0.25;;;16.60;73.00;;;;;;4230972;28;20444;-40
2020/12/05 04:59:41;;;;;;;0.00;0.00;;;16.70;72.60;;;;;;4231350;28;20514;-40
2020/12/05 05:02:10;;;;;;;0.08;0.08;;;16.80;72.10;;;;;;4231194;28;20055;-40
2020/12/05 05:04:31;;;;;;;0.20;0.20;;;16.90;71.90;;;;;;4231127;28;20051;-40
2020/12/05 05:07:03;;;;;;;0.60;0.50;;;16.90;71.80;;;;;;4231192;28;20160;-40
2020/12/05 05:09:25;;;;;;;;;;;16.80;72.10;;;;;;4214730;28;20405;-40
2020/12/05 05:11:54;;;;;;;;;;;16.70;72.50;;;;;;4214681;28;19990;-40
2020/12/05 05:14:15;;;;;;;0.15;0.15;;;16.70;72.70;;;;;;4214842;28;19955;-40
2020/12/05 05:16:36;;;;;;;0.22;0.22;;;16.70;72.60;;;;;;4230492;28;20044;-40
2020/12/05 05:19:17;;;;;;;2.58;1.13;;;16.70;72.30;;;;;;4230645;28;20047;-40
2020/12/05 05:21:40;;;;;;;0.65;0.65;;;16.80;72.30;;;;;;4230965;28;20062;-40
2020/12/05 05:24:10;;;;;;;0.10;0.10;;;16.80;72.40;;;;;;4230911;28;20124;-40
2020/12/05 05:26:32;;;;;;;0.55;0.38;;;16.60;72.70;;;;;;4230408;28;20062;-40
2020/12/05 05:28:54;;;;;;;0.98;0.98;;;16.60;73.10;;;;;;4230873;28;20044;-40
2020/12/05 05:31:18;;;;;;;0.40;0.40;;;16.50;73.50;;;;;;4230446;28;20055;-40
2020/12/05 05:33:40;;;;;;;0.08;0.08;;;16.50;73.80;;;;;;4230572;28;20083;-40
2020/12/05 05:36:01;;;;;;;0.10;0.10;;;16.60;73.60;;;;;;4223323;28;20543;-40
2020/12/05 05:38:23;;;;;;;0.00;0.00;;;16.70;73.10;;;;;;4230744;28;20052;-40
2020/12/05 05:40:44;;;;;;;0.15;0.15;;;16.70;72.70;;;;;;4230731;28;20449;-41
2020/12/05 05:43:18;;;;;;;0.20;0.20;;;16.80;72.60;;;;;;4230331;28;20891;-40
2020/12/05 05:45:40;;;;;;;0.00;0.00;;;16.70;72.50;;;;;;4230198;28;20100;-41
2020/12/05 05:48:03;;;;;;;0.00;0.00;;;16.80;72.10;;;;;;4230564;28;20056;-41
2020/12/05 05:50:30;;;;;;;1.08;0.40;;;16.90;71.80;;;;;;4229848;28;20105;-41
2020/12/05 05:52:58;;;;;;;0.10;0.10;;;16.90;71.60;;;;;;4230401;28;20123;-40
2020/12/05 05:55:19;;;;;;;1.08;1.08;;;16.90;71.70;;;;;;4229953;28;20052;-40
2020/12/05 05:57:43;;;;;;;0.57;0.57;;;16.80;72.00;;;;;;4230126;28;20565;-40
2020/12/05 06:00:04;;;;;;;0.00;0.00;;;16.80;72.00;;;;;;4230171;28;20418;-40
2020/12/05 06:02:40;;;;;;;0.13;0.13;;;16.80;72.10;;;;;;4230279;28;20048;-40
2020/12/05 06:05:01;;;;;;;1.25;1.25;;;16.70;72.50;;;;;;4230292;28;20048;-41
2020/12/05 06:07:30;;;;;;;0.10;0.10;;;16.70;72.90;;;;;;4230320;28;20104;-41
2020/12/05 06:09:55;;;;;;;0.10;0.10;;;16.60;73.30;;;;;;4229855;28;20051;-40
2020/12/05 06:12:19;;;;;;;0.00;0.00;;;16.60;73.40;;;;;;4229941;28;20055;-40
2020/12/05 06:14:41;;;;;;;0.10;0.10;;;16.50;73.60;;;;;;4230181;28;20066;-40
2020/12/05 06:17:07;;;;;;;0.00;0.00;;;16.50;74.10;;;;;;4230091;28;20062;-40
2020/12/05 06:19:28;;;;;;;0.03;0.03;;;16.40;74.40;;;;;;4229877;28;20452;-41
2020/12/05 06:21:52;;;;;;;0.30;0.30;;;16.40;75.50;;;;;;4229860;28;20782;-41
2020/12/05 06:24:24;;;;;;;0.00;0.00;;;16.50;74.10;;;;;;4229576;28;20528;-40
2020/12/05 06:26:47;;;;;;;0.00;0.00;;;16.70;73.60;;;;;;4229801;28;20071;-41
2020/12/05 06:29:10;;;;;;;0.00;0.00;;;16.70;72.90;;;;;;4229853;28;20417;-41
2020/12/05 06:31:41;;;;;;;0.15;0.15;;;16.90;72.40;;;;;;4229551;28;20066;-40
2020/12/05 06:34:02;;;;;;;0.30;0.30;;;16.90;71.90;;;;;;4229552;28;20062;-41
2020/12/05 06:36:39;;;;;;;0.15;0.15;;;16.90;72.00;;;;;;4229567;28;20051;-40
2020/12/05 06:39:19;;;;;;;0.80;0.80;;;16.80;72.30;;;;;;4229374;28;20055;-40
2020/12/05 06:41:42;;;;;;;1.00;0.90;;;16.90;72.40;;;;;;4229389;28;20079;-40
2020/12/05 06:44:12;;;;;;;0.00;0.00;;;17.00;72.00;;;;;;4229661;28;20051;-40
2020/12/05 06:47:03;;;;;;;0.95;0.95;;;17.00;71.70;;;;;;4229352;28;20825;-40
2020/12/05 06:49:46;;;;;;;0.35;0.35;;;17.10;72.60;;;;;;4229572;28;20109;-41
2020/12/05 06:52:40;;;;;;;0.05;0.05;;;17.00;72.90;;;;;;4229500;28;20138;-40
2020/12/05 06:55:04;;;;;;;1.13;1.02;;;16.90;73.00;;;;;;4229139;28;20186;-40
2020/12/05 06:57:28;;;;;;;0.20;0.20;;;16.90;73.10;;;;;;4229446;28;20055;-41
2020/12/05 06:59:49;;;;;;;0.00;0.00;;;16.80;73.50;;;;;;4229568;28;20047;-40
2020/12/05 07:02:27;;;;;;;0.35;0.35;;;16.70;73.80;;;;;;4229323;28;20055;-40
2020/12/05 07:04:48;;;;;;;0.10;0.10;;;16.70;74.10;;;;;;4229472;28;20039;-40
2020/12/05 07:07:29;;;;;;;0.03;0.03;;;16.60;74.10;;;;;;4229370;28;20055;-42
2020/12/05 07:09:51;;;;;;;0.05;0.05;;;16.50;74.60;;;;;;4229140;28;20059;-40
2020/12/05 07:12:18;;;;;;;;;;;16.50;75.00;;;;;;4214210;28;20051;-40
2020/12/05 07:14:39;;;;;;;0.10;0.10;;;16.40;75.20;;;;;;4229232;28;20076;-40
2020/12/05 07:17:00;;;;;;;0.10;0.10;;;16.30;75.60;;;;;;4225863;28;20197;-40
2020/12/05 07:19:22;;;;;;;0.00;0.00;;;16.30;75.70;;;;;;4221164;28;20505;-40
2020/12/05 07:21:44;;;;;;;0.28;0.28;;;16.40;75.30;;;;;;4229198;28;20051;-40
2020/12/05 07:24:05;;;;;;;;;;;16.50;74.70;;;;;;4215569;28;20139;-40
2020/12/05 07:26:27;;;;;;;0.08;0.08;;;16.70;74.00;;;;;;4229164;28;19935;-42
2020/12/05 07:28:50;;;;;;;0.10;0.10;;;16.80;73.50;;;;;;4212383;28;20048;-40
2020/12/05 07:31:11;;;;;;;0.00;0.00;;;16.80;73.40;;;;;;4225290;28;20065;-40
2020/12/05 07:33:34;;;;;;;;;;;16.80;73.20;;;;;;4229694;28;20056;-40
2020/12/05 07:36:00;;;;;;;0.65;0.65;;;16.80;73.20;;;;;;4229275;28;19927;-42
2020/12/05 07:38:22;;;;;;;0.28;0.28;;;16.80;73.30;;;;;;4229142;28;20062;-44
2020/12/05 07:40:43;;;;;;;0.00;0.00;;;16.90;73.00;;;;;;4228926;28;20083;-41
2020/12/05 07:43:14;;;;;;;0.17;0.17;;;17.10;72.50;;;;;;4242623;28;20050;-41
2020/12/05 07:45:35;;;;;;;0.10;0.10;;;17.10;72.20;;;;;;4229114;28;20494;-41
2020/12/05 07:47:56;;;;;;;1.65;1.55;;;17.10;72.10;;;;;;4228259;28;20048;-40
2020/12/05 07:50:17;;;;;;;0.82;0.82;;;17.10;72.30;;;;;;4225148;28;20043;-40
2020/12/05 07:52:39;;;;;;;0.30;0.30;;;17.10;72.80;;;;;;4211916;28;20064;-40
2020/12/05 07:55:02;;;;;;;0.45;0.45;;;16.90;73.20;;;;;;4228712;28;20048;-40
2020/12/05 07:57:25;;;;;;;0.80;0.80;;;16.90;73.60;;;;;;4229225;28;20494;-40
2020/12/05 07:59:52;;;;;;;0.00;0.00;;;16.90;73.70;;;;;;4228430;28;20143;-40
2020/12/05 08:02:23;;;;;;;0.08;0.08;;;16.90;74.00;;;;;;4228707;28;20410;-40
2020/12/05 08:04:54;;;;;;;0.65;0.63;;;16.80;74.90;;;;;;4228755;28;20410;-40
2020/12/05 08:07:34;;;;;;;0.30;0.30;;;16.80;77.20;;;;;;4229071;28;20425;-40
2020/12/05 08:09:55;;;;;;;0.13;0.13;;;16.60;79.00;;;;;;4228921;28;20039;-40
2020/12/05 08:12:20;;;;;;;;;;;16.70;79.60;;;;;;4229832;28;20094;-40
2020/12/05 08:14:43;;;;;;;0.55;0.55;;;16.70;79.30;;;;;;4229978;28;19923;-40
2020/12/05 08:17:06;;;;;;;0.03;0.03;;;16.70;78.90;;;;;;4231731;28;20054;-40
2020/12/05 08:19:27;;;;;;;0.20;0.20;;;16.70;78.70;;;;;;4231790;28;20055;-40
2020/12/05 08:21:49;;;;;;;0.45;0.45;;;16.70;78.70;;;;;;4231685;28;20443;-40
2020/12/05 08:24:13;;;;;;;0.50;0.50;;;16.70;79.30;;;;;;4231568;28;20048;-40
2020/12/05 08:26:35;;;;;;;1.75;1.65;;;16.80;77.90;;;;;;4231496;28;20058;-40
2020/12/05 08:28:56;;;;;;;0.00;0.00;;;16.80;77.30;;;;;;4231986;28;20079;-40
2020/12/05 08:31:19;;;;;;;0.25;0.25;;;16.70;77.00;;;;;;4231094;28;20462;-40
2020/12/05 08:33:45;;;;;;;0.10;0.10;;;16.70;77.00;;;;;;4231115;28;20119;-41
2020/12/05 08:36:15;;;;;;;1.08;0.80;;;16.60;77.10;;;;;;4231174;28;20138;-40
2020/12/05 08:38:41;;;;;;;3.08;2.53;;;16.50;77.40;;;;;;4231156;28;20097;-40
2020/12/05 08:41:04;;;;;;;0.60;0.60;;;16.40;77.70;;;;;;4230545;28;20490;-42
2020/12/05 08:43:25;;;;;;;1.02;1.02;;;16.40;77.80;;;;;;4228964;28;20051;-40
2020/12/05 08:45:47;;;;;;;0.98;0.98;;;16.50;77.50;;;;;;4231329;28;20104;-40
2020/12/05 08:48:17;;;;;;;0.47;0.47;;;16.50;77.20;;;;;;4231193;28;20059;-40
2020/12/05 08:50:39;;;;;;;0.15;0.15;;;16.50;77.10;;;;;;4230428;28;20063;-40
2020/12/05 08:53:02;;;;;;;0.93;0.50;;;16.40;77.10;;;;;;4220399;28;20043;-41
2020/12/05 08:55:24;;;;;;;0.30;0.30;;;16.40;77.20;;;;;;4231200;28;20516;-40
2020/12/05 08:57:53;;;;;;;1.45;0.82;;;16.30;77.50;;;;;;4230860;28;20134;-40
2020/12/05 09:00:17;;;;;;;1.77;1.65;;;16.20;77.60;;;;;;4227161;28;20040;-40
2020/12/05 09:02:38;;;;;;;0.00;0.00;;;16.10;78.00;;;;;;4228876;28;20048;-40
2020/12/05 09:05:01;;;;;;;0.90;0.90;;;16.10;78.00;;;;;;4230324;28;20055;-40
2020/12/05 09:07:23;;;;;;;0.00;0.00;;;16.20;77.90;;;;;;4230599;28;20052;-40
2020/12/05 09:09:46;;;;;;;0.13;0.13;;;16.20;77.80;;;;;;4231024;28;20051;-40
2020/12/05 09:12:09;;;;;;;0.50;0.50;;;16.20;77.90;;;;;;4230871;28;20055;-40
2020/12/05 09:14:30;;;;;;;1.15;1.15;;;16.30;78.70;;;;;;4227719;28;20055;-40
2020/12/05 09:16:52;;;;;;;0.20;0.20;;;16.30;77.70;;;;;;4230608;28;20079;-40
2020/12/05 09:19:22;;;;;;;0.73;0.73;;;16.30;77.60;;;;;;4230528;28;20058;-40
2020/12/05 09:21:43;;;;;;;0.95;0.82;;;16.30;77.30;;;;;;4230446;28;20474;-41
2020/12/05 09:24:05;;;;;;;0.43;0.43;;;16.40;77.00;;;;;;4230528;28;20056;-40
2020/12/05 09:26:26;;;;;;;0.00;0.00;;;16.40;76.80;;;;;;4229873;28;20452;-43
2020/12/05 09:28:47;;;;;;;0.00;0.00;;;16.40;76.90;;;;;;4230759;28;20128;-43
2020/12/05 09:31:09;;;;;;;0.10;0.10;;;16.30;77.10;;;;;;4229539;28;20058;-40
2020/12/05 09:33:30;;;;;;;0.10;0.10;;;16.30;77.30;;;;;;4230880;28;20079;-41
2020/12/05 09:35:51;;;;;;;;;;;16.20;77.30;;;;;;4214847;28;20051;-40
2020/12/05 09:38:13;;;;;;;0.15;0.15;;;16.20;77.60;;;;;;4230188;28;20293;-40
2020/12/05 09:40:35;;;;;;;0.50;0.50;;;16.10;77.70;;;;;;4228587;28;20120;-40
2020/12/05 09:42:57;;;;;;;0.15;0.15;;;16.10;78.10;;;;;;4229936;28;20054;-40
2020/12/05 09:45:18;;;;;;;0.10;0.10;;;16.10;78.40;;;;;;4229764;28;20421;-40
2020/12/05 09:47:40;;;;;;;1.05;1.05;;;16.00;78.50;;;;;;4230087;28;20490;-40
2020/12/05 09:50:03;;;;;;;1.90;1.80;;;16.00;78.60;;;;;;4229980;28;20044;-40
2020/12/05 09:52:25;;;;;;;0.10;0.10;;;15.90;78.50;;;;;;4229419;28;20561;-40
2020/12/05 09:54:46;;;;;;;0.05;0.05;;;15.90;78.80;;;;;;4229893;28;20394;-40
2020/12/05 09:57:09;;;;;;;0.00;0.00;;;15.80;79.00;;;;;;4230293;27;20044;-40
2020/12/05 09:59:30;;;;;;;4.38;2.10;;;15.80;79.40;;;;;;4229345;28;20139;-40
2020/12/05 10:01:51;;;;;;;0.15;0.15;;;16.00;79.00;;;;;;4214229;28;20067;-40
2020/12/05 10:04:16;;;;;;;0.57;0.57;;;16.40;77.40;;;;;;4229647;28;20059;-41
2020/12/05 10:06:37;;;;;;;0.20;0.20;;;16.80;75.50;;;;;;4229855;28;20070;-40
2020/12/05 10:08:58;;;;;;;0.10;0.10;;;17.20;73.60;;;;;;4229731;28;20062;-41
2020/12/05 10:11:20;;;;;;;1.08;1.08;;;17.60;71.70;;;;;;4229789;28;20525;-41
2020/12/05 10:13:45;;;;;;;0.00;0.00;;;17.90;70.00;;;;;;4229948;28;20061;-40
2020/12/05 10:16:06;;;;;;;0.75;0.75;;;18.30;68.50;;;;;;4229939;28;20234;-41
2020/12/05 10:18:27;;;;;;;0.70;0.70;;;18.50;67.20;;;;;;4230332;28;20052;-40
2020/12/05 10:20:54;;;;;;;0.30;0.30;;;18.60;66.80;;;;;;4229750;28;20054;-40
2020/12/05 10:23:14;;;;;;;2.00;1.27;;;18.60;66.70;;;;;;4229379;28;20055;-40
2020/12/05 10:25:35;;;;;;;0.40;0.40;;;18.50;66.80;;;;;;4229591;28;20056;-41
2020/12/05 10:27:56;;;;;;;0.15;0.15;;;18.50;67.30;;;;;;4229916;28;20409;-40
2020/12/05 10:30:18;;;;;;;1.77;0.40;;;18.40;67.90;;;;;;4214284;28;20426;-41
2020/12/05 10:32:38;;;;;;;0.38;0.38;;;18.30;68.00;;;;;;4227315;28;20143;-41
2020/12/05 10:35:01;;;;;;;0.25;0.25;;;18.30;68.00;;;;;;4213778;28;20056;-41
2020/12/05 10:37:23;;;;;;;0.10;0.10;;;18.30;68.10;;;;;;4228665;28;20073;-41
2020/12/05 10:39:46;;;;;;;;;;;18.30;68.30;;;;;;4229958;28;20056;-41
2020/12/05 10:42:09;;;;;;;0.17;0.17;;;18.20;68.70;;;;;;4229220;28;19923;-40
2020/12/05 10:44:30;;;;;;;0.70;0.70;;;18.10;69.10;;;;;;4223999;28;20051;-41
2020/12/05 10:46:52;;;;;;;0.15;0.15;;;18.10;69.30;;;;;;4229401;28;20051;-41
2020/12/05 10:49:13;;;;;;;0.70;0.55;;;18.20;69.10;;;;;;4229315;28;20040;-41
2020/12/05 10:51:34;;;;;;;1.45;1.00;;;18.20;68.60;;;;;;4229174;28;20126;-41
2020/12/05 10:53:58;;;;;;;1.00;0.65;;;18.30;68.50;;;;;;4214363;28;20454;-41
2020/12/05 10:56:24;;;;;;;25.00;2.00;;;18.30;69.30;;;;;;4228748;28;20051;-41
2020/12/05 10:58:45;;;;;;;0.57;0.57;;;18.20;68.70;;;;;;4228669;28;20043;-41
2020/12/05 11:01:06;;;;;;;1.20;1.20;;;18.20;68.80;;;;;;4229223;28;20058;-41
2020/12/05 11:03:28;;;;;;;0.00;0.00;;;18.30;68.40;;;;;;4229139;28;20055;-40
2020/12/05 11:05:49;;;;;;;0.17;0.17;;;18.30;67.90;;;;;;4213667;28;20060;-41
2020/12/05 11:08:10;;;;;;;0.00;0.00;;;18.40;67.60;;;;;;4216546;28;20052;-41
2020/12/05 11:10:31;;;;;;;0.30;0.30;;;18.30;67.40;;;;;;4229200;28;20055;-40
2020/12/05 11:12:52;;;;;;;0.10;0.10;;;18.30;67.60;;;;;;4228998;28;20051;-41
2020/12/05 11:15:13;;;;;;;;;;;18.20;67.90;;;;;;4212695;28;20130;-40
2020/12/05 11:17:36;;;;;;;;;;;18.10;68.30;;;;;;4212723;28;19924;-41
2020/12/05 11:19:58;;;;;;;0.47;0.47;;;17.90;68.70;;;;;;4225190;28;20046;-43
2020/12/05 11:22:18;;;;;;;0.38;0.38;;;17.80;69.40;;;;;;4228573;28;20055;-41
2020/12/05 11:24:39;;;;;;;0.98;0.98;;;17.70;70.00;;;;;;4228480;28;20488;-41
2020/12/05 11:27:03;;;;;;;0.32;0.32;;;17.70;70.30;;;;;;4226489;28;20395;-40
2020/12/05 11:29:23;;;;;;;0.05;0.05;;;17.70;70.40;;;;;;4228644;28;20139;-40
2020/12/05 11:31:44;;;;;;;1.30;1.30;;;17.60;70.60;;;;;;4228341;28;20043;-40
2020/12/05 11:34:05;;;;;;;0.10;0.10;;;17.60;70.80;;;;;;4228581;28;20052;-41
2020/12/05 11:36:28;;;;;;;0.93;0.93;;;17.50;71.10;;;;;;4228648;28;20122;-40
2020/12/05 11:38:49;;;;;;;1.25;1.20;;;17.60;71.10;;;;;;4228536;28;20047;-40
2020/12/05 11:41:10;;;;;;;0.35;0.35;;;17.60;70.80;;;;;;4228346;28;20101;-41
2020/12/05 11:43:31;;;;;;;0.20;0.20;;;17.60;70.80;;;;;;4227921;28;20047;-41
2020/12/05 11:45:54;;;;;;;0.10;0.10;;;17.60;70.90;;;;;;4228796;28;20526;-41
2020/12/05 11:48:18;;;;;;;0.57;0.57;;;17.60;70.70;;;;;;4228454;28;20052;-41
2020/12/05 11:50:39;;;;;;;0.10;0.10;;;17.80;70.30;;;;;;4226374;28;20122;-41
2020/12/05 11:53:00;;;;;;;0.17;0.17;;;17.80;69.60;;;;;;4231900;28;20467;-41
2020/12/05 11:55:21;;;;;;;2.97;0.68;;;17.90;69.40;;;;;;4231697;28;20051;-42
2020/12/05 11:57:42;;;;;;;1.98;0.80;;;17.90;69.30;;;;;;4231739;28;20043;-41
2020/12/05 12:00:04;;;;;;;0.10;0.10;;;17.90;69.40;;;;;;4231933;28;20052;-41
2020/12/05 12:02:32;;;;;;;1.35;1.35;;;17.90;69.00;;;;;;4231454;28;20047;-41
2020/12/05 12:04:53;;;;;;;1.38;1.38;;;17.90;68.60;;;;;;4232848;27;20126;-41
2020/12/05 12:07:14;;;;;;;0.35;0.35;;;17.90;68.40;;;;;;4238723;27;20448;-40
2020/12/05 12:09:35;;;;;;;0.30;0.30;;;17.80;68.50;;;;;;4231318;28;20066;-40
2020/12/05 12:11:57;;;;;;;0.00;0.00;;;17.70;68.20;;;;;;4231257;28;20069;-40
2020/12/05 12:14:21;;;;;;;0.00;0.00;;;17.70;69.00;;;;;;4230260;28;20075;-41
2020/12/05 12:16:41;;;;;;;0.00;0.00;;;17.70;69.00;;;;;;4231474;28;20043;-41
2020/12/05 12:19:04;;;;;;;0.30;0.30;;;17.70;68.80;;;;;;4216341;28;20596;-41
2020/12/05 12:21:25;;;;;;;0.00;0.00;;;17.60;68.90;;;;;;4231581;28;20059;-41
2020/12/05 12:23:48;;;;;;;0.68;0.68;;;17.60;68.80;;;;;;4231599;28;20128;-41
2020/12/05 12:26:10;;;;;;;1.58;1.45;;;17.60;68.80;;;;;;4232023;28;20497;-40
2020/12/05 12:28:31;;;;;;;0.73;0.73;;;17.60;68.90;;;;;;4232012;28;20051;-41